Terminal Aerodrome Forecast
Issued by NWS Pittsburgh, PA

Home | Current Version | Previous Version | Text Only | Print | Product List | Glossary On
Versions: 1 2 3 4 5 6 7 8 9 10 11 12 13 14 15 16 17 18 19 20
000
FTUS41 KPBZ 230256 AAA
TAFPIT
TAF AMD
KPIT 230256Z 2303/2406 14004KT P6SM BKN100
     FM232000 15015G25KT 6SM -SHRA OVC025
     FM232300 16012G20KT 4SM RA OVC015=

USA.gov is the U.S. government's official web portal to all federal, state and local government web resources and services.